sensor_id;sensor_type;location;lat;lon;timestamp;pressure;altitude;pressure_sealevel;temperature;humidity
64253;BME280;50592;52.958;-7.470;2022-10-16T00:01:46;98899.91;;;6.60;100.00
64253;BME280;50592;52.958;-7.470;2022-10-16T00:04:15;98905.47;;;6.57;100.00
64253;BME280;50592;52.958;-7.470;2022-10-16T00:06:45;98910.88;;;6.55;100.00
64253;BME280;50592;52.958;-7.470;2022-10-16T00:09:12;98918.75;;;6.55;100.00
64253;BME280;50592;52.958;-7.470;2022-10-16T00:11:42;98930.22;;;6.54;100.00
64253;BME280;50592;52.958;-7.470;2022-10-16T00:14:14;98928.41;;;6.55;100.00
64253;BME280;50592;52.958;-7.470;2022-10-16T00:16:41;98926.63;;;6.55;100.00
64253;BME280;50592;52.958;-7.470;2022-10-16T00:19:11;98940.41;;;6.57;100.00
64253;BME280;50592;52.958;-7.470;2022-10-16T00:21:39;98940.75;;;6.54;100.00
64253;BME280;50592;52.958;-7.470;2022-10-16T00:24:26;98943.97;;;6.48;100.00
64253;BME280;50592;52.958;-7.470;2022-10-16T00:26:52;98947.25;;;6.50;100.00
64253;BME280;50592;52.958;-7.470;2022-10-16T00:29:21;98952.03;;;6.55;100.00
64253;BME280;50592;52.958;-7.470;2022-10-16T00:31:48;98953.72;;;6.56;100.00
64253;BME280;50592;52.958;-7.470;2022-10-16T00:34:17;98952.72;;;6.57;100.00
64253;BME280;50592;52.958;-7.470;2022-10-16T00:36:44;98974.41;;;6.59;100.00
64253;BME280;50592;52.958;-7.470;2022-10-16T00:39:13;98973.94;;;6.64;100.00
64253;BME280;50592;52.958;-7.470;2022-10-16T00:41:40;98986.06;;;6.65;100.00
64253;BME280;50592;52.958;-7.470;2022-10-16T00:44:48;98983.13;;;6.68;100.00
64253;BME280;50592;52.958;-7.470;2022-10-16T00:47:34;98985.44;;;6.71;100.00
64253;BME280;50592;52.958;-7.470;2022-10-16T00:50:17;98987.25;;;6.70;100.00
64253;BME280;50592;52.958;-7.470;2022-10-16T00:52:49;98988.06;;;6.71;100.00
64253;BME280;50592;52.958;-7.470;2022-10-16T00:55:18;98982.00;;;6.70;100.00
64253;BME280;50592;52.958;-7.470;2022-10-16T00:57:48;98989.88;;;6.70;100.00
64253;BME280;50592;52.958;-7.470;2022-10-16T01:00:20;98987.09;;;6.72;100.00
64253;BME280;50592;52.958;-7.470;2022-10-16T01:02:54;98983.66;;;6.72;100.00
64253;BME280;50592;52.958;-7.470;2022-10-16T01:05:22;98968.69;;;6.72;100.00
64253;BME280;50592;52.958;-7.470;2022-10-16T01:08:02;98970.22;;;6.75;100.00
64253;BME280;50592;52.958;-7.470;2022-10-16T01:10:35;98980.72;;;6.75;100.00
64253;BME280;50592;52.958;-7.470;2022-10-16T01:13:11;98985.44;;;6.71;100.00
64253;BME280;50592;52.958;-7.470;2022-10-16T01:16:03;98995.28;;;6.69;100.00
64253;BME280;50592;52.958;-7.470;2022-10-16T01:18:46;99001.81;;;6.65;100.00
64253;BME280;50592;52.958;-7.470;2022-10-16T01:21:30;99006.53;;;6.61;100.00
64253;BME280;50592;52.958;-7.470;2022-10-16T01:24:06;99013.31;;;6.64;100.00
64253;BME280;50592;52.958;-7.470;2022-10-16T01:29:52;99020.28;;;6.55;100.00
64253;BME280;50592;52.958;-7.470;2022-10-16T01:32:27;99022.59;;;6.58;100.00
64253;BME280;50592;52.958;-7.470;2022-10-16T01:38:00;99030.00;;;6.54;100.00
64253;BME280;50592;52.958;-7.470;2022-10-16T01:40:34;99031.16;;;6.60;100.00
64253;BME280;50592;52.958;-7.470;2022-10-16T01:43:38;99027.41;;;6.63;100.00
64253;BME280;50592;52.958;-7.470;2022-10-16T01:46:01;99028.06;;;6.65;100.00
64253;BME280;50592;52.958;-7.470;2022-10-16T01:48:29;99032.19;;;6.67;100.00
64253;BME280;50592;52.958;-7.470;2022-10-16T01:51:09;99031.06;;;6.70;100.00
64253;BME280;50592;52.958;-7.470;2022-10-16T01:53:39;99035.34;;;6.71;100.00
64253;BME280;50592;52.958;-7.470;2022-10-16T01:56:12;99042.75;;;6.76;100.00
64253;BME280;50592;52.958;-7.470;2022-10-16T01:58:47;99053.25;;;6.76;100.00
64253;BME280;50592;52.958;-7.470;2022-10-16T02:01:22;99063.91;;;6.74;100.00
64253;BME280;50592;52.958;-7.470;2022-10-16T02:03:55;99047.63;;;6.70;100.00
64253;BME280;50592;52.958;-7.470;2022-10-16T02:06:28;99053.19;;;6.67;100.00
64253;BME280;50592;52.958;-7.470;2022-10-16T02:08:59;99048.41;;;6.63;100.00
64253;BME280;50592;52.958;-7.470;2022-10-16T02:11:28;99066.59;;;6.56;100.00
64253;BME280;50592;52.958;-7.470;2022-10-16T02:14:02;99079.72;;;6.56;100.00
64253;BME280;50592;52.958;-7.470;2022-10-16T02:16:44;99092.78;;;6.48;100.00
64253;BME280;50592;52.958;-7.470;2022-10-16T02:19:15;99091.56;;;6.42;100.00
64253;BME280;50592;52.958;-7.470;2022-10-16T02:21:54;99090.22;;;6.38;100.00
64253;BME280;50592;52.958;-7.470;2022-10-16T02:24:44;99106.13;;;6.36;100.00
64253;BME280;50592;52.958;-7.470;2022-10-16T02:27:40;99109.19;;;6.31;100.00
64253;BME280;50592;52.958;-7.470;2022-10-16T02:30:15;99120.81;;;6.29;100.00
64253;BME280;50592;52.958;-7.470;2022-10-16T02:32:48;99120.97;;;6.27;100.00
64253;BME280;50592;52.958;-7.470;2022-10-16T02:35:18;99123.06;;;6.24;100.00
64253;BME280;50592;52.958;-7.470;2022-10-16T02:37:50;99131.22;;;6.20;100.00
64253;BME280;50592;52.958;-7.470;2022-10-16T02:40:20;99140.88;;;6.20;100.00
64253;BME280;50592;52.958;-7.470;2022-10-16T02:42:52;99135.25;;;6.15;100.00
64253;BME280;50592;52.958;-7.470;2022-10-16T02:45:23;99140.34;;;6.16;100.00
64253;BME280;50592;52.958;-7.470;2022-10-16T02:47:53;99143.97;;;6.15;100.00
64253;BME280;50592;52.958;-7.470;2022-10-16T02:50:23;99149.22;;;6.15;100.00
64253;BME280;50592;52.958;-7.470;2022-10-16T02:52:53;99153.63;;;6.15;100.00
64253;BME280;50592;52.958;-7.470;2022-10-16T02:55:23;99158.22;;;6.13;100.00
64253;BME280;50592;52.958;-7.470;2022-10-16T02:57:50;99150.50;;;6.01;100.00
64253;BME280;50592;52.958;-7.470;2022-10-16T03:00:19;99159.50;;;5.99;100.00
64253;BME280;50592;52.958;-7.470;2022-10-16T03:02:46;99154.84;;;5.92;100.00
64253;BME280;50592;52.958;-7.470;2022-10-16T03:05:16;99163.81;;;5.90;100.00
64253;BME280;50592;52.958;-7.470;2022-10-16T03:07:43;99169.34;;;5.87;100.00
64253;BME280;50592;52.958;-7.470;2022-10-16T03:10:12;99172.25;;;5.83;100.00
64253;BME280;50592;52.958;-7.470;2022-10-16T03:12:38;99177.94;;;5.79;100.00
64253;BME280;50592;52.958;-7.470;2022-10-16T03:15:08;99177.53;;;5.74;100.00
64253;BME280;50592;52.958;-7.470;2022-10-16T03:17:35;99183.06;;;5.70;100.00
64253;BME280;50592;52.958;-7.470;2022-10-16T03:20:06;99178.94;;;5.68;100.00
64253;BME280;50592;52.958;-7.470;2022-10-16T03:22:32;99172.22;;;5.65;100.00
64253;BME280;50592;52.958;-7.470;2022-10-16T03:25:02;99179.25;;;5.65;100.00
64253;BME280;50592;52.958;-7.470;2022-10-16T03:27:32;99180.06;;;5.65;100.00
64253;BME280;50592;52.958;-7.470;2022-10-16T03:30:02;99186.41;;;5.63;100.00
64253;BME280;50592;52.958;-7.470;2022-10-16T03:32:29;99198.03;;;5.60;100.00
64253;BME280;50592;52.958;-7.470;2022-10-16T03:34:59;99204.22;;;5.59;100.00
64253;BME280;50592;52.958;-7.470;2022-10-16T03:37:26;99215.97;;;5.55;100.00
64253;BME280;50592;52.958;-7.470;2022-10-16T03:39:56;99214.75;;;5.49;100.00
64253;BME280;50592;52.958;-7.470;2022-10-16T03:42:22;99218.75;;;5.43;100.00
64253;BME280;50592;52.958;-7.470;2022-10-16T03:44:51;99225.81;;;5.43;100.00
64253;BME280;50592;52.958;-7.470;2022-10-16T03:47:18;99242.63;;;5.40;100.00
64253;BME280;50592;52.958;-7.470;2022-10-16T03:49:50;99239.06;;;5.41;100.00
64253;BME280;50592;52.958;-7.470;2022-10-16T03:52:16;99243.72;;;5.38;100.00
64253;BME280;50592;52.958;-7.470;2022-10-16T03:54:46;99254.22;;;5.38;100.00
64253;BME280;50592;52.958;-7.470;2022-10-16T03:57:13;99257.81;;;5.37;100.00
64253;BME280;50592;52.958;-7.470;2022-10-16T03:59:43;99263.84;;;5.37;100.00
64253;BME280;50592;52.958;-7.470;2022-10-16T04:02:10;99262.34;;;5.34;100.00
64253;BME280;50592;52.958;-7.470;2022-10-16T04:04:38;99269.53;;;5.32;100.00
64253;BME280;50592;52.958;-7.470;2022-10-16T04:07:05;99263.34;;;5.33;100.00
64253;BME280;50592;52.958;-7.470;2022-10-16T04:09:35;99264.56;;;5.39;100.00
64253;BME280;50592;52.958;-7.470;2022-10-16T04:12:05;99260.81;;;5.42;100.00
64253;BME280;50592;52.958;-7.470;2022-10-16T04:14:34;99272.13;;;5.42;100.00
64253;BME280;50592;52.958;-7.470;2022-10-16T04:17:04;99279.84;;;5.44;100.00
64253;BME280;50592;52.958;-7.470;2022-10-16T04:19:34;99283.19;;;5.46;100.00
64253;BME280;50592;52.958;-7.470;2022-10-16T04:22:01;99286.47;;;5.48;100.00
64253;BME280;50592;52.958;-7.470;2022-10-16T04:24:30;99285.38;;;5.51;100.00
64253;BME280;50592;52.958;-7.470;2022-10-16T04:26:57;99283.56;;;5.51;100.00
64253;BME280;50592;52.958;-7.470;2022-10-16T04:29:26;99279.72;;;5.55;100.00
64253;BME280;50592;52.958;-7.470;2022-10-16T04:31:52;99279.72;;;5.55;100.00
64253;BME280;50592;52.958;-7.470;2022-10-16T04:34:22;99289.22;;;5.56;100.00
64253;BME280;50592;52.958;-7.470;2022-10-16T04:36:52;99290.88;;;5.57;100.00
64253;BME280;50592;52.958;-7.470;2022-10-16T04:39:19;99295.16;;;5.58;100.00
64253;BME280;50592;52.958;-7.470;2022-10-16T04:41:49;99303.97;;;5.57;100.00
64253;BME280;50592;52.958;-7.470;2022-10-16T04:44:15;99292.97;;;5.54;100.00
64253;BME280;50592;52.958;-7.470;2022-10-16T04:46:45;99305.94;;;5.55;100.00
64253;BME280;50592;52.958;-7.470;2022-10-16T04:49:15;99294.88;;;5.52;100.00
64253;BME280;50592;52.958;-7.470;2022-10-16T04:51:45;99304.94;;;5.46;100.00
64253;BME280;50592;52.958;-7.470;2022-10-16T04:54:14;99308.81;;;5.42;100.00
64253;BME280;50592;52.958;-7.470;2022-10-16T04:56:41;99311.72;;;5.39;100.00
64253;BME280;50592;52.958;-7.470;2022-10-16T04:59:17;99319.72;;;5.38;100.00
64253;BME280;50592;52.958;-7.470;2022-10-16T05:01:47;99316.28;;;5.37;100.00
64253;BME280;50592;52.958;-7.470;2022-10-16T05:04:17;99324.53;;;5.32;100.00
64253;BME280;50592;52.958;-7.470;2022-10-16T05:06:44;99319.72;;;5.28;100.00
64253;BME280;50592;52.958;-7.470;2022-10-16T05:09:13;99332.97;;;5.26;100.00
64253;BME280;50592;52.958;-7.470;2022-10-16T05:11:40;99335.00;;;5.22;100.00
64253;BME280;50592;52.958;-7.470;2022-10-16T05:14:09;99347.97;;;5.24;100.00
64253;BME280;50592;52.958;-7.470;2022-10-16T05:16:35;99340.66;;;5.18;100.00
64253;BME280;50592;52.958;-7.470;2022-10-16T05:19:05;99352.81;;;5.19;100.00
64253;BME280;50592;52.958;-7.470;2022-10-16T05:21:32;99351.00;;;5.19;100.00
64253;BME280;50592;52.958;-7.470;2022-10-16T05:24:02;99366.59;;;5.21;100.00
64253;BME280;50592;52.958;-7.470;2022-10-16T05:26:30;99366.47;;;5.22;100.00
64253;BME280;50592;52.958;-7.470;2022-10-16T05:28:58;99374.75;;;5.28;100.00
64253;BME280;50592;52.958;-7.470;2022-10-16T05:31:25;99378.63;;;5.24;100.00
64253;BME280;50592;52.958;-7.470;2022-10-16T05:33:58;99382.72;;;5.16;100.00
64253;BME280;50592;52.958;-7.470;2022-10-16T05:36:26;99386.56;;;5.02;100.00
64253;BME280;50592;52.958;-7.470;2022-10-16T05:38:55;99398.81;;;4.92;100.00
64253;BME280;50592;52.958;-7.470;2022-10-16T05:41:21;99393.97;;;4.87;100.00
64253;BME280;50592;52.958;-7.470;2022-10-16T05:43:54;99405.84;;;4.91;100.00
64253;BME280;50592;52.958;-7.470;2022-10-16T05:46:23;99410.94;;;4.93;100.00
64253;BME280;50592;52.958;-7.470;2022-10-16T05:48:53;99408.44;;;4.91;100.00
64253;BME280;50592;52.958;-7.470;2022-10-16T05:51:23;99418.22;;;4.89;100.00
64253;BME280;50592;52.958;-7.470;2022-10-16T05:53:53;99429.81;;;4.87;100.00
64253;BME280;50592;52.958;-7.470;2022-10-16T05:56:23;99436.50;;;4.69;100.00
64253;BME280;50592;52.958;-7.470;2022-10-16T05:58:51;99434.47;;;4.52;100.00
64253;BME280;50592;52.958;-7.470;2022-10-16T06:01:19;99446.78;;;4.40;100.00
64253;BME280;50592;52.958;-7.470;2022-10-16T06:03:52;99445.06;;;4.29;100.00
64253;BME280;50592;52.958;-7.470;2022-10-16T06:06:24;99449.44;;;4.18;100.00
64253;BME280;50592;52.958;-7.470;2022-10-16T06:08:53;99450.19;;;4.09;100.00
64253;BME280;50592;52.958;-7.470;2022-10-16T06:11:25;99454.25;;;4.02;100.00
64253;BME280;50592;52.958;-7.470;2022-10-16T06:13:57;99450.13;;;3.99;100.00
64253;BME280;50592;52.958;-7.470;2022-10-16T06:16:30;99456.19;;;4.00;100.00
64253;BME280;50592;52.958;-7.470;2022-10-16T06:18:56;99457.72;;;4.02;100.00
64253;BME280;50592;52.958;-7.470;2022-10-16T06:21:28;99452.47;;;4.02;100.00
64253;BME280;50592;52.958;-7.470;2022-10-16T06:23:56;99453.44;;;4.01;100.00
64253;BME280;50592;52.958;-7.470;2022-10-16T06:26:28;99447.25;;;4.02;100.00
64253;BME280;50592;52.958;-7.470;2022-10-16T06:28:59;99450.59;;;4.04;100.00
64253;BME280;50592;52.958;-7.470;2022-10-16T06:31:29;99453.56;;;4.00;100.00
64253;BME280;50592;52.958;-7.470;2022-10-16T06:34:01;99453.25;;;3.93;100.00
64253;BME280;50592;52.958;-7.470;2022-10-16T06:36:33;99452.41;;;3.92;100.00
64253;BME280;50592;52.958;-7.470;2022-10-16T06:39:00;99453.84;;;3.96;100.00
64253;BME280;50592;52.958;-7.470;2022-10-16T06:41:29;99457.72;;;4.02;100.00
64253;BME280;50592;52.958;-7.470;2022-10-16T06:43:57;99461.16;;;4.03;100.00
64253;BME280;50592;52.958;-7.470;2022-10-16T06:46:27;99461.28;;;4.01;100.00
64253;BME280;50592;52.958;-7.470;2022-10-16T06:48:53;99465.69;;;4.01;100.00
64253;BME280;50592;52.958;-7.470;2022-10-16T06:51:23;99460.06;;;4.05;100.00
64253;BME280;50592;52.958;-7.470;2022-10-16T06:53:53;99460.78;;;4.07;100.00
64253;BME280;50592;52.958;-7.470;2022-10-16T06:56:26;99464.59;;;4.03;100.00
64253;BME280;50592;52.958;-7.470;2022-10-16T06:58:54;99471.03;;;3.99;100.00
64253;BME280;50592;52.958;-7.470;2022-10-16T07:01:24;99479.13;;;3.96;100.00
64253;BME280;50592;52.958;-7.470;2022-10-16T07:03:54;99500.56;;;3.90;100.00
64253;BME280;50592;52.958;-7.470;2022-10-16T07:06:26;99506.03;;;3.87;100.00
64253;BME280;50592;52.958;-7.470;2022-10-16T07:08:56;99501.56;;;3.66;100.00
64253;BME280;50592;52.958;-7.470;2022-10-16T07:11:26;99492.38;;;3.39;100.00
64253;BME280;50592;52.958;-7.470;2022-10-16T07:13:53;99495.22;;;3.35;100.00
64253;BME280;50592;52.958;-7.470;2022-10-16T07:16:26;99497.81;;;3.47;100.00
64253;BME280;50592;52.958;-7.470;2022-10-16T07:18:59;99498.75;;;3.57;100.00
64253;BME280;50592;52.958;-7.470;2022-10-16T07:21:34;99506.56;;;3.69;100.00
64253;BME280;50592;52.958;-7.470;2022-10-16T07:24:12;99515.44;;;3.78;100.00
64253;BME280;50592;52.958;-7.470;2022-10-16T07:26:40;99521.25;;;3.81;100.00
64253;BME280;50592;52.958;-7.470;2022-10-16T07:29:19;99518.63;;;3.81;100.00
64253;BME280;50592;52.958;-7.470;2022-10-16T07:31:47;99513.28;;;3.83;100.00
64253;BME280;50592;52.958;-7.470;2022-10-16T07:34:18;99515.16;;;3.92;100.00
64253;BME280;50592;52.958;-7.470;2022-10-16T07:36:48;99513.59;;;4.01;100.00
64253;BME280;50592;52.958;-7.470;2022-10-16T07:39:18;99524.09;;;4.11;100.00
64253;BME280;50592;52.958;-7.470;2022-10-16T07:41:48;99526.81;;;4.21;100.00
64253;BME280;50592;52.958;-7.470;2022-10-16T07:44:17;99525.88;;;4.22;100.00
64253;BME280;50592;52.958;-7.470;2022-10-16T07:46:45;99522.53;;;4.20;100.00
64253;BME280;50592;52.958;-7.470;2022-10-16T07:49:14;99522.28;;;4.23;100.00
64253;BME280;50592;52.958;-7.470;2022-10-16T07:51:41;99522.75;;;4.28;100.00
64253;BME280;50592;52.958;-7.470;2022-10-16T07:54:11;99516.56;;;4.29;100.00
64253;BME280;50592;52.958;-7.470;2022-10-16T07:56:38;99514.66;;;4.31;100.00
64253;BME280;50592;52.958;-7.470;2022-10-16T07:59:07;99522.00;;;4.38;100.00
64253;BME280;50592;52.958;-7.470;2022-10-16T08:01:37;99519.94;;;4.41;100.00
64253;BME280;50592;52.958;-7.470;2022-10-16T08:04:07;99524.91;;;4.44;100.00
64253;BME280;50592;52.958;-7.470;2022-10-16T08:06:39;99510.63;;;4.49;100.00
64253;BME280;50592;52.958;-7.470;2022-10-16T08:09:09;99513.69;;;4.54;100.00
64253;BME280;50592;52.958;-7.470;2022-10-16T08:11:39;99522.69;;;4.61;100.00
64253;BME280;50592;52.958;-7.470;2022-10-16T08:14:05;99528.75;;;4.62;100.00
64253;BME280;50592;52.958;-7.470;2022-10-16T08:16:35;99540.75;;;4.64;100.00
64253;BME280;50592;52.958;-7.470;2022-10-16T08:19:02;99542.41;;;4.65;100.00
64253;BME280;50592;52.958;-7.470;2022-10-16T08:21:32;99534.03;;;4.71;100.00
64253;BME280;50592;52.958;-7.470;2022-10-16T08:23:58;99536.25;;;4.76;100.00
64253;BME280;50592;52.958;-7.470;2022-10-16T08:26:29;99543.38;;;4.86;100.00
64253;BME280;50592;52.958;-7.470;2022-10-16T08:28:59;99546.28;;;4.92;100.00
64253;BME280;50592;52.958;-7.470;2022-10-16T08:31:26;99540.63;;;4.97;100.00
64253;BME280;50592;52.958;-7.470;2022-10-16T08:33:55;99535.28;;;4.99;100.00
64253;BME280;50592;52.958;-7.470;2022-10-16T08:36:22;99545.47;;;5.02;100.00
64253;BME280;50592;52.958;-7.470;2022-10-16T08:38:52;99548.69;;;5.05;100.00
64253;BME280;50592;52.958;-7.470;2022-10-16T08:44:35;99548.16;;;5.12;100.00
64253;BME280;50592;52.958;-7.470;2022-10-16T08:50:09;99565.97;;;5.18;100.00
64253;BME280;50592;52.958;-7.470;2022-10-16T08:52:42;99562.94;;;5.22;100.00
64253;BME280;50592;52.958;-7.470;2022-10-16T08:58:01;99568.09;;;5.34;100.00
64253;BME280;50592;52.958;-7.470;2022-10-16T09:00:30;99581.75;;;5.28;100.00
64253;BME280;50592;52.958;-7.470;2022-10-16T09:03:06;99582.97;;;5.24;100.00
64253;BME280;50592;52.958;-7.470;2022-10-16T09:05:54;99586.97;;;5.28;100.00
64253;BME280;50592;52.958;-7.470;2022-10-16T09:11:18;99584.50;;;5.26;100.00
64253;BME280;50592;52.958;-7.470;2022-10-16T09:13:58;99572.31;;;5.15;100.00
64253;BME280;50592;52.958;-7.470;2022-10-16T09:16:33;99572.91;;;4.97;100.00
64253;BME280;50592;52.958;-7.470;2022-10-16T09:19:22;99571.25;;;4.96;100.00
64253;BME280;50592;52.958;-7.470;2022-10-16T09:21:54;99567.22;;;4.92;100.00
64253;BME280;50592;52.958;-7.470;2022-10-16T09:24:24;99571.13;;;4.98;100.00
64253;BME280;50592;52.958;-7.470;2022-10-16T09:26:55;99559.88;;;5.07;100.00
64253;BME280;50592;52.958;-7.470;2022-10-16T09:29:25;99565.16;;;5.17;100.00
64253;BME280;50592;52.958;-7.470;2022-10-16T09:31:53;99570.28;;;5.29;100.00
64253;BME280;50592;52.958;-7.470;2022-10-16T09:34:30;99575.03;;;5.35;100.00
64253;BME280;50592;52.958;-7.470;2022-10-16T09:37:04;99585.91;;;5.40;100.00
64253;BME280;50592;52.958;-7.470;2022-10-16T09:39:53;99588.16;;;5.45;100.00
64253;BME280;50592;52.958;-7.470;2022-10-16T09:42:35;99587.63;;;5.51;100.00
64253;BME280;50592;52.958;-7.470;2022-10-16T09:45:03;99582.09;;;5.54;100.00
64253;BME280;50592;52.958;-7.470;2022-10-16T09:47:37;99580.19;;;5.56;100.00
64253;BME280;50592;52.958;-7.470;2022-10-16T09:50:22;99574.25;;;5.54;100.00
64253;BME280;50592;52.958;-7.470;2022-10-16T09:53:10;99564.72;;;5.53;100.00
64253;BME280;50592;52.958;-7.470;2022-10-16T09:55:53;99563.09;;;5.52;100.00
64253;BME280;50592;52.958;-7.470;2022-10-16T09:58:23;99564.84;;;5.52;100.00
64253;BME280;50592;52.958;-7.470;2022-10-16T10:00:52;99569.69;;;5.56;100.00
64253;BME280;50592;52.958;-7.470;2022-10-16T10:03:40;99561.84;;;5.56;100.00
64253;BME280;50592;52.958;-7.470;2022-10-16T10:06:25;99557.59;;;5.65;100.00
64253;BME280;50592;52.958;-7.470;2022-10-16T10:11:57;99550.06;;;5.92;100.00
64253;BME280;50592;52.958;-7.470;2022-10-16T10:14:38;99551.72;;;6.03;100.00
64253;BME280;50592;52.958;-7.470;2022-10-16T10:17:19;99548.84;;;6.06;100.00
64253;BME280;50592;52.958;-7.470;2022-10-16T10:30:50;99563.75;;;6.55;100.00
64253;BME280;50592;52.958;-7.470;2022-10-16T10:47:26;99568.63;;;7.07;100.00
64253;BME280;50592;52.958;-7.470;2022-10-16T10:50:11;99571.50;;;7.14;100.00
64253;BME280;50592;52.958;-7.470;2022-10-16T10:55:43;99562.88;;;7.32;100.00
64253;BME280;50592;52.958;-7.470;2022-10-16T11:01:08;99566.69;;;7.38;100.00
64253;BME280;50592;52.958;-7.470;2022-10-16T11:06:43;99573.34;;;7.42;100.00
64253;BME280;50592;52.958;-7.470;2022-10-16T11:09:28;99569.72;;;7.43;100.00
64253;BME280;50592;52.958;-7.470;2022-10-16T11:12:04;99566.84;;;7.36;100.00
64253;BME280;50592;52.958;-7.470;2022-10-16T11:15:02;99557.44;;;7.43;100.00
64253;BME280;50592;52.958;-7.470;2022-10-16T11:17:39;99562.38;;;7.47;100.00
64253;BME280;50592;52.958;-7.470;2022-10-16T11:20:20;99552.69;;;7.47;100.00
64253;BME280;50592;52.958;-7.470;2022-10-16T11:25:34;99560.38;;;7.59;100.00
64253;BME280;50592;52.958;-7.470;2022-10-16T11:28:14;99545.69;;;7.66;100.00
64253;BME280;50592;52.958;-7.470;2022-10-16T11:30:57;99536.75;;;7.77;100.00
64253;BME280;50592;52.958;-7.470;2022-10-16T11:33:38;99533.53;;;7.83;100.00
64253;BME280;50592;52.958;-7.470;2022-10-16T11:36:12;99539.19;;;7.88;100.00
64253;BME280;50592;52.958;-7.470;2022-10-16T11:47:37;99524.06;;;8.09;100.00
64253;BME280;50592;52.958;-7.470;2022-10-16T11:51:05;99521.44;;;8.09;100.00
64253;BME280;50592;52.958;-7.470;2022-10-16T11:53:14;99517.13;;;8.07;100.00
64253;BME280;50592;52.958;-7.470;2022-10-16T11:55:46;99510.22;;;8.06;100.00
64253;BME280;50592;52.958;-7.470;2022-10-16T11:58:30;99506.28;;;8.11;100.00
64253;BME280;50592;52.958;-7.470;2022-10-16T12:07:07;99511.25;;;8.14;100.00
64253;BME280;50592;52.958;-7.470;2022-10-16T12:09:45;99498.25;;;8.12;100.00
64253;BME280;50592;52.958;-7.470;2022-10-16T12:12:26;99494.50;;;8.15;100.00
64253;BME280;50592;52.958;-7.470;2022-10-16T12:15:03;99490.06;;;8.15;100.00
64253;BME280;50592;52.958;-7.470;2022-10-16T12:17:44;99477.88;;;8.14;100.00
64253;BME280;50592;52.958;-7.470;2022-10-16T12:22:51;99484.84;;;8.24;100.00
64253;BME280;50592;52.958;-7.470;2022-10-16T12:25:33;99475.00;;;8.26;100.00
64253;BME280;50592;52.958;-7.470;2022-10-16T12:28:21;99474.84;;;8.27;100.00
64253;BME280;50592;52.958;-7.470;2022-10-16T12:30:54;99464.00;;;8.30;100.00
64253;BME280;50592;52.958;-7.470;2022-10-16T12:33:27;99457.75;;;8.31;100.00
64253;BME280;50592;52.958;-7.470;2022-10-16T12:36:00;99456.47;;;8.36;100.00
64253;BME280;50592;52.958;-7.470;2022-10-16T12:38:46;99441.50;;;8.36;100.00
64253;BME280;50592;52.958;-7.470;2022-10-16T12:41:29;99436.91;;;8.38;100.00
64253;BME280;50592;52.958;-7.470;2022-10-16T12:44:00;99428.69;;;8.41;100.00
64253;BME280;50592;52.958;-7.470;2022-10-16T12:51:42;99392.66;;;8.42;100.00
64253;BME280;50592;52.958;-7.470;2022-10-16T12:54:15;99373.91;;;8.45;100.00
64253;BME280;50592;52.958;-7.470;2022-10-16T13:05:20;99349.56;;;8.51;100.00
64253;BME280;50592;52.958;-7.470;2022-10-16T13:10:48;99358.69;;;8.57;100.00
64253;BME280;50592;52.958;-7.470;2022-10-16T13:28:08;99323.47;;;8.66;100.00
64253;BME280;50592;52.958;-7.470;2022-10-16T13:30:38;99308.66;;;8.65;100.00
64253;BME280;50592;52.958;-7.470;2022-10-16T13:35:49;99295.34;;;8.67;100.00
64253;BME280;50592;52.958;-7.470;2022-10-16T13:38:22;99293.72;;;8.74;100.00
64253;BME280;50592;52.958;-7.470;2022-10-16T13:41:05;99304.41;;;8.81;100.00
64253;BME280;50592;52.958;-7.470;2022-10-16T13:46:11;99295.72;;;8.89;100.00
64253;BME280;50592;52.958;-7.470;2022-10-16T13:48:39;99283.19;;;8.91;100.00
64253;BME280;50592;52.958;-7.470;2022-10-16T13:51:15;99268.38;;;8.98;100.00
64253;BME280;50592;52.958;-7.470;2022-10-16T13:53:43;99275.81;;;9.03;100.00
64253;BME280;50592;52.958;-7.470;2022-10-16T13:56:28;99260.16;;;9.10;100.00
64253;BME280;50592;52.958;-7.470;2022-10-16T13:59:03;99244.50;;;9.16;100.00
64253;BME280;50592;52.958;-7.470;2022-10-16T14:01:43;99237.91;;;9.21;100.00
64253;BME280;50592;52.958;-7.470;2022-10-16T14:04:13;99230.50;;;9.24;100.00
64253;BME280;50592;52.958;-7.470;2022-10-16T14:06:46;99240.56;;;9.29;100.00
64253;BME280;50592;52.958;-7.470;2022-10-16T14:09:29;99230.16;;;9.36;100.00
64253;BME280;50592;52.958;-7.470;2022-10-16T14:12:01;99211.53;;;9.37;100.00
64253;BME280;50592;52.958;-7.470;2022-10-16T14:14:41;99202.63;;;9.38;100.00
64253;BME280;50592;52.958;-7.470;2022-10-16T14:19:52;99172.16;;;9.36;100.00
64253;BME280;50592;52.958;-7.470;2022-10-16T14:24:59;99168.38;;;9.30;100.00
64253;BME280;50592;52.958;-7.470;2022-10-16T14:27:29;99157.84;;;9.30;100.00
64253;BME280;50592;52.958;-7.470;2022-10-16T14:30:26;99160.47;;;9.30;100.00
64253;BME280;50592;52.958;-7.470;2022-10-16T14:33:00;99157.66;;;9.32;100.00
64253;BME280;50592;52.958;-7.470;2022-10-16T14:35:33;99167.72;;;9.36;100.00
64253;BME280;50592;52.958;-7.470;2022-10-16T14:38:04;99159.13;;;9.34;100.00
64253;BME280;50592;52.958;-7.470;2022-10-16T14:40:36;99159.97;;;9.35;100.00
64253;BME280;50592;52.958;-7.470;2022-10-16T14:43:06;99155.84;;;9.32;100.00
64253;BME280;50592;52.958;-7.470;2022-10-16T14:45:36;99143.16;;;9.27;100.00
64253;BME280;50592;52.958;-7.470;2022-10-16T14:48:16;99137.22;;;9.25;100.00
64253;BME280;50592;52.958;-7.470;2022-10-16T14:50:47;99127.84;;;9.23;100.00
64253;BME280;50592;52.958;-7.470;2022-10-16T14:53:17;99109.91;;;9.18;100.00
64253;BME280;50592;52.958;-7.470;2022-10-16T14:55:44;99103.31;;;9.14;100.00
64253;BME280;50592;52.958;-7.470;2022-10-16T14:58:20;99089.16;;;9.06;100.00
64253;BME280;50592;52.958;-7.470;2022-10-16T15:00:50;99081.59;;;9.03;100.00
64253;BME280;50592;52.958;-7.470;2022-10-16T15:03:20;99067.44;;;8.96;100.00
64253;BME280;50592;52.958;-7.470;2022-10-16T15:05:50;99072.72;;;8.96;100.00
64253;BME280;50592;52.958;-7.470;2022-10-16T15:08:21;99069.75;;;8.91;100.00
64253;BME280;50592;52.958;-7.470;2022-10-16T15:10:51;99060.03;;;8.91;100.00
64253;BME280;50592;52.958;-7.470;2022-10-16T15:13:17;99060.03;;;8.91;100.00
64253;BME280;50592;52.958;-7.470;2022-10-16T15:15:47;99053.09;;;8.90;100.00